Time;durP1;ratioP1;P1;durP2;ratioP2;P2;SDS_P1;SDS_P2;PMS_P1;PMS_P2;Temp;Humidity;BMP_temperature;BMP_pressure;BME280_temperature;BME280_humidity;BME280_pressure;Samples;Min_cycle;Max_cycle;Signal;HPM_P1;HPM_P2
2023/07/26 00:02:16;;;;;;;7.22;4.07;;;13.30;99.90;;;;;;7549051;19;20035;-73
2023/07/26 00:04:48;;;;;;;8.75;4.38;;;13.30;99.90;;;;;;7544100;19;20026;-73
2023/07/26 00:07:20;;;;;;;8.57;4.18;;;13.20;99.90;;;;;;7557784;19;20903;-73
2023/07/26 00:09:53;;;;;;;11.70;6.10;;;13.30;99.90;;;;;;7537856;19;20022;-75
2023/07/26 00:12:26;;;;;;;6.80;3.95;;;13.30;99.90;;;;;;7544363;19;20093;-74
2023/07/26 00:14:59;;;;;;;7.65;4.28;;;13.20;99.90;;;;;;7572359;19;20026;-74
2023/07/26 00:17:31;;;;;;;6.93;4.83;;;13.20;99.90;;;;;;7575882;19;20034;-76
2023/07/26 00:20:04;;;;;;;8.40;4.68;;;13.20;99.90;;;;;;7560773;19;20538;-74
2023/07/26 00:22:36;;;;;;;7.05;4.40;;;13.10;99.90;;;;;;7571033;19;20015;-74
2023/07/26 00:25:09;;;;;;;9.35;5.30;;;13.20;99.90;;;;;;7555138;19;20959;-74
2023/07/26 00:27:42;;;;;;;5.82;4.35;;;13.20;99.90;;;;;;7552755;19;20018;-74
2023/07/26 00:30:15;;;;;;;7.43;4.90;;;13.20;99.90;;;;;;7561076;19;20026;-74
2023/07/26 00:32:47;;;;;;;8.98;5.63;;;13.30;99.90;;;;;;7565155;19;20010;-75
2023/07/26 00:35:24;;;;;;;6.38;4.45;;;13.20;99.90;;;;;;7544785;19;20019;-74
2023/07/26 00:37:56;;;;;;;6.38;4.68;;;13.30;99.90;;;;;;7559987;19;20191;-74
2023/07/26 00:40:29;;;;;;;6.83;4.27;;;13.20;99.90;;;;;;7561859;19;20015;-73
2023/07/26 00:43:01;;;;;;;9.00;5.88;;;13.20;99.90;;;;;;7547602;19;20026;-75
2023/07/26 00:45:38;;;;;;;9.35;4.70;;;13.20;99.90;;;;;;7555447;19;20019;-75
2023/07/26 00:48:11;;;;;;;8.20;5.65;;;13.20;99.90;;;;;;7573678;19;20646;-74
2023/07/26 00:50:45;;;;;;;9.07;4.72;;;13.20;99.90;;;;;;7543873;19;20035;-73
2023/07/26 00:53:18;;;;;;;6.97;5.15;;;13.20;99.90;;;;;;7567494;19;20890;-73
2023/07/26 00:55:51;;;;;;;10.07;5.73;;;13.30;99.90;;;;;;7557108;19;20061;-76
2023/07/26 00:58:23;;;;;;;9.15;5.63;;;13.20;99.90;;;;;;7561953;19;20021;-74
2023/07/26 01:00:58;;;;;;;8.65;5.55;;;13.30;99.90;;;;;;7566405;19;20586;-73
2023/07/26 01:03:31;;;;;;;8.75;4.65;;;13.20;99.90;;;;;;7554806;19;20037;-74
2023/07/26 01:06:37;;;;;;;11.55;6.10;;;13.10;99.90;;;;;;7569677;19;20037;-73
2023/07/26 01:09:12;;;;;;;12.23;6.53;;;13.10;99.90;;;;;;7576365;19;22633;-76
2023/07/26 01:12:11;;;;;;;8.88;6.00;;;13.20;99.90;;;;;;7549528;19;20011;-76
2023/07/26 01:14:49;;;;;;;10.40;5.13;;;13.20;99.90;;;;;;7538657;19;20014;-74
2023/07/26 01:17:22;;;;;;;8.00;5.57;;;13.20;99.90;;;;;;7555517;19;20018;-73
2023/07/26 01:19:54;;;;;;;9.30;6.18;;;13.20;99.90;;;;;;7552276;19;20378;-73
2023/07/26 01:22:26;;;;;;;10.98;7.15;;;13.30;99.90;;;;;;7548634;19;20022;-74
2023/07/26 01:24:59;;;;;;;13.32;7.93;;;13.20;99.90;;;;;;7555711;19;20022;-74
2023/07/26 01:27:31;;;;;;;16.23;7.95;;;13.20;99.90;;;;;;7569455;19;20026;-73
2023/07/26 01:30:04;;;;;;;15.75;8.65;;;13.20;99.90;;;;;;7554097;19;20014;-73
2023/07/26 01:32:38;;;;;;;13.83;8.57;;;13.10;99.90;;;;;;7555403;19;21166;-74
2023/07/26 01:35:11;;;;;;;13.73;8.52;;;13.10;99.90;;;;;;7542391;19;20984;-73
2023/07/26 01:37:43;;;;;;;16.77;8.52;;;13.10;99.90;;;;;;7574701;19;20537;-74
2023/07/26 01:40:16;;;;;;;17.83;9.43;;;13.10;99.90;;;;;;7551522;19;20033;-74
2023/07/26 01:42:49;;;;;;;11.53;7.50;;;13.20;99.90;;;;;;7549483;19;20074;-74
2023/07/26 01:45:21;;;;;;;13.98;8.95;;;13.20;99.90;;;;;;7559652;19;20321;-74
2023/07/26 01:47:54;;;;;;;15.20;9.60;;;13.10;99.90;;;;;;7558347;19;20021;-74
2023/07/26 01:50:27;;;;;;;17.00;9.38;;;13.20;99.90;;;;;;7580020;19;20014;-74
2023/07/26 01:53:00;;;;;;;17.08;10.10;;;13.20;99.90;;;;;;7559030;19;20006;-74
2023/07/26 01:55:32;;;;;;;17.60;9.85;;;13.20;99.90;;;;;;7539464;19;20021;-74
2023/07/26 01:58:05;;;;;;;15.00;9.60;;;13.20;99.90;;;;;;7566701;19;20010;-74
2023/07/26 02:00:37;;;;;;;12.80;9.57;;;13.20;99.90;;;;;;7574985;19;20314;-74
2023/07/26 02:03:09;;;;;;;14.80;9.93;;;13.30;99.90;;;;;;7568116;19;20026;-74
2023/07/26 02:05:46;;;;;;;16.53;10.83;;;13.30;99.90;;;;;;7555681;19;20014;-74
2023/07/26 02:08:18;;;;;;;22.63;12.27;;;13.30;99.90;;;;;;7568658;19;20022;-73
2023/07/26 02:10:51;;;;;;;18.98;11.45;;;13.30;99.90;;;;;;7543927;19;20026;-73
2023/07/26 02:13:23;;;;;;;22.25;11.25;;;13.20;99.90;;;;;;7557820;19;20019;-74
2023/07/26 02:15:55;;;;;;;18.15;12.52;;;13.10;99.90;;;;;;7543735;19;21134;-75
2023/07/26 02:18:28;;;;;;;14.85;11.05;;;13.10;99.90;;;;;;7549328;19;20027;-76
2023/07/26 02:21:00;;;;;;;13.13;10.10;;;13.10;99.90;;;;;;7542008;19;20033;-76
2023/07/26 02:23:32;;;;;;;15.15;10.95;;;13.00;99.90;;;;;;7575552;19;20044;-75
2023/07/26 02:26:05;;;;;;;14.45;9.40;;;13.10;99.90;;;;;;7596121;19;20778;-76
2023/07/26 02:28:37;;;;;;;15.98;10.10;;;13.00;99.90;;;;;;7599622;19;20021;-76
2023/07/26 02:31:10;;;;;;;13.93;8.82;;;13.10;99.90;;;;;;7605199;19;20110;-75
2023/07/26 02:33:42;;;;;;;14.57;8.35;;;13.00;99.90;;;;;;7601164;19;20014;-75
2023/07/26 02:36:14;;;;;;;14.15;8.98;;;13.00;99.90;;;;;;7592080;19;20884;-75
2023/07/26 02:38:47;;;;;;;16.17;10.13;;;12.90;99.90;;;;;;7602854;19;20014;-75
2023/07/26 02:41:19;;;;;;;14.05;9.73;;;13.00;99.90;;;;;;7590127;19;20517;-75
2023/07/26 02:43:52;;;;;;;14.20;8.48;;;13.00;99.90;;;;;;7603446;19;20022;-75
2023/07/26 02:46:24;;;;;;;18.48;9.57;;;13.00;99.90;;;;;;7593375;19;20014;-76
2023/07/26 02:48:56;;;;;;;12.18;7.97;;;13.00;99.90;;;;;;7589743;19;20021;-76
2023/07/26 02:51:28;;;;;;;15.77;8.52;;;13.00;99.90;;;;;;7596358;19;20014;-74
2023/07/26 02:54:01;;;;;;;17.65;9.93;;;13.00;99.90;;;;;;7598269;19;20582;-75
2023/07/26 02:56:34;;;;;;;13.60;9.00;;;13.00;99.90;;;;;;7607888;19;20011;-75
2023/07/26 02:59:06;;;;;;;19.20;11.07;;;13.00;99.90;;;;;;7605516;19;20064;-75
2023/07/26 03:01:39;;;;;;;18.88;9.63;;;13.00;99.90;;;;;;7604190;19;20040;-75
2023/07/26 03:04:12;;;;;;;12.10;8.57;;;13.00;99.90;;;;;;7604668;19;20071;-74
2023/07/26 03:06:44;;;;;;;14.45;9.02;;;13.00;99.90;;;;;;7586756;19;20010;-74
2023/07/26 03:09:17;;;;;;;17.65;10.77;;;13.00;99.90;;;;;;7605509;19;20015;-76
2023/07/26 03:11:49;;;;;;;22.30;10.93;;;13.00;99.90;;;;;;7597540;19;20025;-75
2023/07/26 03:14:21;;;;;;;22.95;11.25;;;13.00;99.90;;;;;;7597442;19;20154;-75
2023/07/26 03:16:54;;;;;;;15.00;9.98;;;13.00;99.90;;;;;;7601581;19;20022;-75
2023/07/26 03:19:38;;;;;;;17.17;9.98;;;12.90;99.90;;;;;;7581200;19;20022;-75
2023/07/26 03:22:11;;;;;;;28.67;10.73;;;12.80;99.90;;;;;;7558743;19;20035;-74
2023/07/26 03:24:43;;;;;;;19.63;11.25;;;12.90;99.90;;;;;;7596172;19;20019;-75
2023/07/26 03:27:16;;;;;;;14.85;9.63;;;12.90;99.90;;;;;;7589062;19;20935;-74
2023/07/26 03:29:48;;;;;;;16.30;10.33;;;12.90;99.90;;;;;;7584165;19;20085;-75
2023/07/26 03:32:21;;;;;;;23.38;10.50;;;12.90;99.90;;;;;;7573672;19;20014;-74
2023/07/26 03:34:54;;;;;;;19.65;11.60;;;13.00;99.90;;;;;;7578108;19;20114;-74
2023/07/26 03:37:26;;;;;;;15.00;10.18;;;12.90;99.90;;;;;;7595520;19;20117;-76
2023/07/26 03:39:58;;;;;;;22.58;11.32;;;12.90;99.90;;;;;;7582501;19;21198;-74
2023/07/26 03:42:31;;;;;;;21.05;10.90;;;12.90;99.90;;;;;;7589223;19;20021;-75
2023/07/26 03:45:04;;;;;;;20.50;11.13;;;12.90;99.90;;;;;;7591652;19;20018;-74
2023/07/26 03:47:36;;;;;;;19.45;10.60;;;12.80;99.90;;;;;;7590628;19;21210;-76
2023/07/26 03:50:10;;;;;;;18.27;11.73;;;12.80;99.90;;;;;;7581223;19;20048;-73
2023/07/26 03:52:42;;;;;;;17.37;11.17;;;12.80;99.90;;;;;;7578617;19;20018;-74
2023/07/26 03:55:15;;;;;;;20.35;10.30;;;12.80;99.90;;;;;;7548231;19;20283;-76
2023/07/26 03:57:48;;;;;;;16.95;10.73;;;12.80;99.90;;;;;;7570199;19;20011;-76
2023/07/26 04:00:20;;;;;;;17.42;11.02;;;12.80;99.90;;;;;;7565886;19;20022;-76
2023/07/26 04:02:52;;;;;;;17.88;10.93;;;12.80;99.90;;;;;;7567773;19;21044;-75
2023/07/26 04:05:25;;;;;;;17.10;10.02;;;12.80;99.90;;;;;;7562290;19;20403;-76
2023/07/26 04:07:57;;;;;;;21.83;10.65;;;12.80;99.90;;;;;;7570670;19;20049;-75
2023/07/26 04:10:29;;;;;;;12.75;8.63;;;12.80;99.90;;;;;;7580212;19;20014;-75
2023/07/26 04:13:01;;;;;;;18.45;10.65;;;12.80;99.90;;;;;;7588920;19;20014;-76
2023/07/26 04:15:34;;;;;;;17.80;10.00;;;12.80;99.90;;;;;;7585241;19;20048;-75
2023/07/26 04:18:10;;;;;;;16.98;10.32;;;12.80;99.90;;;;;;7570946;19;20014;-75
2023/07/26 04:20:42;;;;;;;13.73;9.60;;;12.80;99.90;;;;;;7568969;19;20010;-76
2023/07/26 04:23:15;;;;;;;19.05;11.10;;;12.80;99.90;;;;;;7575671;19;20007;-76
2023/07/26 04:25:50;;;;;;;20.25;11.77;;;12.80;99.90;;;;;;7579914;19;21078;-76
2023/07/26 04:28:22;;;;;;;16.30;10.48;;;12.90;99.90;;;;;;7579285;19;20026;-76
2023/07/26 04:30:55;;;;;;;17.83;10.40;;;12.90;99.90;;;;;;7570090;19;20010;-76
2023/07/26 04:33:27;;;;;;;15.48;9.52;;;12.80;99.90;;;;;;7581157;19;20603;-75
2023/07/26 04:35:59;;;;;;;15.30;11.45;;;12.80;99.90;;;;;;7576763;19;20027;-76
2023/07/26 04:38:32;;;;;;;13.98;10.20;;;12.90;99.90;;;;;;7560852;19;20033;-76
2023/07/26 04:41:04;;;;;;;20.08;12.10;;;12.90;99.90;;;;;;7551063;19;20014;-76
2023/07/26 04:43:36;;;;;;;21.67;12.55;;;13.00;99.90;;;;;;7551055;19;20087;-77
2023/07/26 04:46:09;;;;;;;22.10;12.68;;;13.00;99.90;;;;;;7565621;19;20025;-75
2023/07/26 04:48:42;;;;;;;22.83;14.20;;;13.10;99.90;;;;;;7523962;19;20007;-75
2023/07/26 04:51:14;;;;;;;21.40;13.35;;;13.10;99.90;;;;;;7549045;19;20014;-76
2023/07/26 04:53:47;;;;;;;23.17;14.30;;;13.10;99.90;;;;;;7550736;19;20014;-76
2023/07/26 04:56:19;;;;;;;21.80;14.55;;;13.10;99.90;;;;;;7572031;19;20029;-76
2023/07/26 04:58:52;;;;;;;29.95;16.50;;;13.10;99.90;;;;;;7578564;19;20015;-76
2023/07/26 05:01:24;;;;;;;24.58;15.63;;;13.10;99.90;;;;;;7542372;19;20769;-76
2023/07/26 05:03:58;;;;;;;24.20;15.27;;;13.20;99.90;;;;;;7563797;19;20056;-76
2023/07/26 05:06:31;;;;;;;27.05;17.05;;;13.20;99.90;;;;;;7531835;19;20011;-76
2023/07/26 05:09:04;;;;;;;26.10;15.73;;;13.20;99.90;;;;;;7540752;19;20018;-75
2023/07/26 05:11:37;;;;;;;;;;;13.30;99.90;;;;;;7557126;19;20007;-73
2023/07/26 05:14:09;;;;;;;31.27;16.67;;;13.30;99.90;;;;;;7566860;19;20569;-74
2023/07/26 05:16:41;;;;;;;32.20;18.40;;;13.30;99.90;;;;;;7572328;19;20021;-76
2023/07/26 05:19:14;;;;;;;27.08;17.27;;;13.20;99.90;;;;;;7569449;19;20616;-75
2023/07/26 05:21:46;;;;;;;30.15;17.63;;;13.10;99.90;;;;;;7558178;19;23915;-75
2023/07/26 05:24:19;;;;;;;26.10;18.15;;;13.10;99.90;;;;;;7529779;19;20018;-73
2023/07/26 05:26:52;;;;;;;31.98;17.98;;;13.10;99.90;;;;;;7548427;19;21621;-73
2023/07/26 05:29:24;;;;;;;30.13;18.50;;;13.10;99.90;;;;;;7523059;19;20028;-74
2023/07/26 05:31:57;;;;;;;35.60;20.80;;;13.10;99.90;;;;;;7561116;19;20018;-74
2023/07/26 05:34:30;;;;;;;35.95;21.70;;;13.10;99.90;;;;;;7585042;19;20036;-74
2023/07/26 05:37:03;;;;;;;29.70;17.88;;;13.10;99.90;;;;;;7587979;19;20019;-74
2023/07/26 05:39:35;;;;;;;26.90;19.55;;;13.10;99.90;;;;;;7569267;19;20018;-74
2023/07/26 05:42:07;;;;;;;32.72;20.35;;;13.00;99.90;;;;;;7565379;19;20011;-75
2023/07/26 05:44:40;;;;;;;28.00;18.95;;;13.10;99.90;;;;;;7566581;19;20055;-75
2023/07/26 05:47:14;;;;;;;27.35;18.48;;;13.10;99.90;;;;;;7572510;19;22754;-75
2023/07/26 05:49:46;;;;;;;28.63;17.45;;;13.30;99.90;;;;;;7590481;19;20018;-76
2023/07/26 05:52:19;;;;;;;32.67;19.90;;;13.30;99.90;;;;;;7581500;19;20942;-75
2023/07/26 05:54:51;;;;;;;31.08;18.40;;;13.40;99.90;;;;;;7590924;19;20518;-76
2023/07/26 05:57:23;;;;;;;31.35;20.95;;;13.50;99.90;;;;;;7579381;19;20023;-76
2023/07/26 05:59:56;;;;;;;31.88;20.08;;;13.60;99.90;;;;;;7580430;19;20014;-76
2023/07/26 06:02:28;;;;;;;32.88;22.23;;;13.60;99.90;;;;;;7576215;19;20038;-76
2023/07/26 06:05:01;;;;;;;34.10;21.90;;;13.50;99.90;;;;;;7597782;19;20022;-76
2023/07/26 06:07:33;;;;;;;35.33;23.60;;;13.60;99.90;;;;;;7588439;19;20022;-77
2023/07/26 06:10:06;;;;;;;51.57;23.70;;;13.50;99.90;;;;;;7588613;19;20754;-76
2023/07/26 06:12:39;;;;;;;41.63;24.48;;;13.40;99.90;;;;;;7576412;19;20655;-76
2023/07/26 06:15:11;;;;;;;34.15;22.70;;;13.40;99.90;;;;;;7592573;19;20890;-75
2023/07/26 06:17:43;;;;;;;40.00;25.17;;;13.40;99.90;;;;;;7591634;19;20039;-75
2023/07/26 06:20:16;;;;;;;34.05;23.70;;;13.30;99.90;;;;;;7578250;19;20038;-76
2023/07/26 06:22:48;;;;;;;37.72;23.92;;;13.20;99.90;;;;;;7580685;19;20006;-76
2023/07/26 06:25:20;;;;;;;35.67;25.25;;;13.30;99.90;;;;;;7587200;19;20094;-77
2023/07/26 06:27:53;;;;;;;44.70;26.67;;;13.30;99.90;;;;;;7581921;19;20022;-77
2023/07/26 06:30:25;;;;;;;45.60;28.83;;;13.30;99.90;;;;;;7582647;19;20016;-76
2023/07/26 06:32:58;;;;;;;38.50;23.70;;;13.30;99.90;;;;;;7610537;19;20011;-77
2023/07/26 06:35:30;;;;;;;47.65;28.80;;;13.30;99.90;;;;;;7575578;19;20640;-76
2023/07/26 06:38:02;;;;;;;49.88;29.52;;;13.30;99.90;;;;;;7583834;19;20545;-77
2023/07/26 06:40:35;;;;;;;41.47;25.70;;;13.40;99.90;;;;;;7589460;19;20022;-76
2023/07/26 06:43:07;;;;;;;42.22;24.98;;;13.30;99.90;;;;;;7585840;19;20015;-75
2023/07/26 06:45:47;;;;;;;36.03;24.95;;;13.20;99.90;;;;;;7588699;19;20007;-76
2023/07/26 06:48:20;;;;;;;40.35;25.48;;;13.20;99.90;;;;;;7577527;19;20065;-76
2023/07/26 06:50:52;;;;;;;37.58;25.63;;;13.20;99.90;;;;;;7594139;19;20002;-75
2023/07/26 06:53:24;;;;;;;36.45;22.63;;;13.30;99.90;;;;;;7600041;19;21545;-75
2023/07/26 06:56:00;;;;;;;36.65;23.65;;;13.20;99.90;;;;;;7584704;19;20476;-75
2023/07/26 06:58:32;;;;;;;34.30;22.80;;;13.10;99.90;;;;;;7580970;19;23470;-74
2023/07/26 07:01:14;;;;;;;43.50;24.88;;;13.20;99.90;;;;;;7596330;19;20018;-74
2023/07/26 07:03:46;;;;;;;33.70;23.25;;;13.30;99.90;;;;;;7580071;19;20683;-74
2023/07/26 07:06:30;;;;;;;39.90;25.05;;;13.20;99.90;;;;;;7593663;19;20017;-75
2023/07/26 07:09:04;;;;;;;37.80;23.90;;;13.20;99.90;;;;;;7598537;19;20014;-76
2023/07/26 07:11:36;;;;;;;38.47;24.42;;;13.10;99.90;;;;;;7582398;19;20046;-76
2023/07/26 07:14:09;;;;;;;35.33;21.73;;;13.10;99.90;;;;;;7591794;19;20647;-75
2023/07/26 07:16:42;;;;;;;;;;;13.20;99.90;;;;;;7588012;19;20016;-76
2023/07/26 07:19:14;;;;;;;34.85;21.55;;;13.20;99.90;;;;;;7599437;19;19933;-75
2023/07/26 07:21:47;;;;;;;35.72;21.30;;;13.00;99.90;;;;;;7588601;19;20061;-77
2023/07/26 07:24:19;;;;;;;49.00;25.88;;;13.00;99.90;;;;;;7583224;19;20742;-76
2023/07/26 07:26:52;;;;;;;35.17;21.53;;;13.00;99.90;;;;;;7580096;19;20014;-76
2023/07/26 07:29:24;;;;;;;32.55;20.55;;;12.90;99.90;;;;;;7576784;19;20274;-76
2023/07/26 07:31:56;;;;;;;33.65;18.65;;;12.80;99.90;;;;;;7576657;19;20018;-76
2023/07/26 07:34:48;;;;;;;34.75;20.10;;;12.90;99.90;;;;;;7587977;19;20014;-77
2023/07/26 07:37:20;;;;;;;30.85;18.90;;;12.90;99.90;;;;;;7580978;19;20014;-75
2023/07/26 07:39:53;;;;;;;30.10;17.90;;;12.80;99.90;;;;;;7577029;19;20014;-75
2023/07/26 07:42:25;;;;;;;31.73;18.13;;;12.90;99.90;;;;;;7567063;19;20018;-76
2023/07/26 07:44:58;;;;;;;28.92;15.90;;;12.90;99.90;;;;;;7590672;19;20010;-75
2023/07/26 07:47:30;;;;;;;23.90;15.85;;;12.90;99.90;;;;;;7575707;19;20282;-76
2023/07/26 07:50:03;;;;;;;21.48;14.60;;;12.90;99.90;;;;;;7586990;19;20017;-75
2023/07/26 07:52:35;;;;;;;19.75;12.85;;;13.00;99.90;;;;;;7560885;19;20916;-75
2023/07/26 07:55:08;;;;;;;19.33;12.88;;;13.10;99.90;;;;;;7571477;19;20021;-76
2023/07/26 07:57:41;;;;;;;15.68;10.70;;;13.10;99.90;;;;;;7573877;19;20018;-75
2023/07/26 08:00:14;;;;;;;18.00;11.40;;;13.10;99.90;;;;;;7584505;19;20018;-75
2023/07/26 08:02:47;;;;;;;19.83;10.90;;;13.10;99.90;;;;;;7581920;19;20948;-76
2023/07/26 08:05:19;;;;;;;17.50;10.70;;;13.00;99.90;;;;;;7581907;19;20014;-77
2023/07/26 08:07:52;;;;;;;15.90;11.27;;;13.00;99.90;;;;;;7558407;19;20014;-76
2023/07/26 08:10:25;;;;;;;14.52;10.23;;;13.00;99.90;;;;;;7585647;19;21203;-76
2023/07/26 08:12:57;;;;;;;16.75;10.45;;;13.00;99.90;;;;;;7570155;19;20487;-77
2023/07/26 08:15:32;;;;;;;16.95;10.40;;;12.90;99.90;;;;;;7574581;19;20029;-76
2023/07/26 08:18:06;;;;;;;12.50;8.93;;;13.00;99.90;;;;;;7588764;19;20609;-75
2023/07/26 08:20:39;;;;;;;18.35;10.60;;;13.20;99.90;;;;;;7602503;19;21188;-76
2023/07/26 08:23:11;;;;;;;19.60;10.33;;;13.20;99.90;;;;;;7600309;19;20014;-76
2023/07/26 08:25:44;;;;;;;16.95;9.95;;;13.10;99.90;;;;;;7590930;19;20527;-77
2023/07/26 08:28:16;;;;;;;15.73;10.10;;;13.20;99.90;;;;;;7588072;19;20025;-76
2023/07/26 08:30:49;;;;;;;13.57;9.68;;;13.20;99.90;;;;;;7578664;19;20022;-76
2023/07/26 08:33:21;;;;;;;14.27;8.13;;;13.20;99.90;;;;;;7570068;19;20038;-76
2023/07/26 08:35:55;;;;;;;12.02;7.75;;;13.20;99.90;;;;;;7567754;19;20094;-77
2023/07/26 08:38:28;;;;;;;12.95;7.57;;;13.30;99.90;;;;;;7584244;19;20067;-76
2023/07/26 08:41:01;;;;;;;9.68;6.95;;;13.30;99.90;;;;;;7583261;19;20053;-76
2023/07/26 08:43:39;;;;;;;7.93;5.70;;;13.30;99.90;;;;;;7584634;19;20023;-76
2023/07/26 08:46:14;;;;;;;8.43;6.05;;;13.40;99.90;;;;;;7585456;19;21031;-76
2023/07/26 08:48:47;;;;;;;9.77;5.97;;;13.30;99.90;;;;;;7590027;19;20060;-76
2023/07/26 08:51:20;;;;;;;11.63;6.63;;;13.30;99.90;;;;;;7577236;19;20019;-76
2023/07/26 08:53:54;;;;;;;13.07;6.60;;;13.30;99.90;;;;;;7588745;19;20026;-75
2023/07/26 08:56:27;;;;;;;8.50;6.25;;;13.40;99.90;;;;;;7573895;19;20499;-75
2023/07/26 08:58:59;;;;;;;6.70;5.18;;;13.50;99.90;;;;;;7576386;19;20022;-76
2023/07/26 09:01:32;;;;;;;9.25;6.18;;;13.40;99.90;;;;;;7573397;19;20039;-75
2023/07/26 09:04:24;;;;;;;8.55;6.38;;;13.40;99.90;;;;;;7565778;19;20014;-75
2023/07/26 09:07:04;;;;;;;8.52;5.32;;;13.30;99.90;;;;;;7569278;19;20027;-75
2023/07/26 09:09:37;;;;;;;10.82;6.15;;;13.40;99.90;;;;;;7578537;19;20018;-75
2023/07/26 09:12:23;;;;;;;12.07;6.78;;;13.50;99.90;;;;;;7564947;19;20014;-75
2023/07/26 09:14:58;;;;;;;13.68;7.30;;;13.50;99.90;;;;;;7584372;19;20612;-75
2023/07/26 09:17:41;;;;;;;9.75;7.72;;;13.60;99.90;;;;;;7591834;19;20027;-74
2023/07/26 09:20:21;;;;;;;10.95;7.40;;;13.50;99.90;;;;;;7595949;19;20026;-75
2023/07/26 09:23:10;;;;;;;10.10;8.00;;;13.70;99.90;;;;;;7580253;19;20057;-74
2023/07/26 09:25:44;;;;;;;11.05;7.30;;;13.70;99.90;;;;;;7582623;19;20046;-74
2023/07/26 09:28:16;;;;;;;12.00;7.72;;;13.90;99.90;;;;;;7578009;19;20545;-75
2023/07/26 09:30:49;;;;;;;9.52;6.90;;;14.20;99.90;;;;;;7569112;19;20006;-74
2023/07/26 09:33:22;;;;;;;9.80;6.65;;;14.50;99.90;;;;;;7569680;19;20019;-74
2023/07/26 09:35:55;;;;;;;7.82;4.20;;;14.50;99.90;;;;;;7572493;19;20865;-74
2023/07/26 09:38:27;;;;;;;7.43;5.10;;;14.70;99.90;;;;;;7574155;19;20029;-74
2023/07/26 09:40:59;;;;;;;7.55;4.20;;;14.80;99.90;;;;;;7579683;19;20014;-74
2023/07/26 09:43:33;;;;;;;3.63;3.20;;;15.00;99.90;;;;;;7579896;19;20021;-74
2023/07/26 09:46:05;;;;;;;4.03;2.90;;;15.10;99.90;;;;;;7590445;19;20022;-74
2023/07/26 09:48:59;;;;;;;4.07;2.92;;;15.00;99.90;;;;;;7591417;19;20022;-74
2023/07/26 09:51:34;;;;;;;3.65;3.22;;;15.10;99.90;;;;;;7583013;19;21690;-74
2023/07/26 09:54:12;;;;;;;3.30;3.00;;;15.20;99.90;;;;;;7586250;19;20011;-74
2023/07/26 09:56:49;;;;;;;5.82;2.92;;;15.20;99.90;;;;;;7577957;19;20013;-74
2023/07/26 09:59:24;;;;;;;3.03;2.72;;;15.30;99.90;;;;;;7566840;19;20018;-74
2023/07/26 10:02:01;;;;;;;2.92;2.33;;;15.30;99.90;;;;;;7564542;19;20022;-73
2023/07/26 10:04:54;;;;;;;4.50;3.00;;;15.20;99.90;;;;;;7572062;19;20021;-73
2023/07/26 10:07:30;;;;;;;4.20;3.10;;;15.10;99.90;;;;;;7569152;19;20766;-73
2023/07/26 10:10:06;;;;;;;4.75;3.10;;;15.30;99.90;;;;;;7568871;19;20025;-73
2023/07/26 10:12:42;;;;;;;6.25;3.17;;;15.20;99.90;;;;;;7567511;19;20019;-72
2023/07/26 10:15:16;;;;;;;6.38;3.28;;;15.30;99.90;;;;;;7577643;19;20023;-72
2023/07/26 10:17:52;;;;;;;6.38;3.40;;;15.50;99.90;;;;;;7574706;19;20029;-73
2023/07/26 10:20:26;;;;;;;3.35;3.05;;;15.80;99.90;;;;;;7583138;19;20018;-73
2023/07/26 10:23:02;;;;;;;6.82;2.88;;;15.50;99.90;;;;;;7564706;19;20023;-73
2023/07/26 10:25:36;;;;;;;3.33;2.88;;;15.80;99.90;;;;;;7565907;19;20056;-73
2023/07/26 10:28:08;;;;;;;;;;;16.00;99.90;;;;;;7570189;19;20538;-73
2023/07/26 10:30:41;;;;;;;4.60;3.00;;;16.00;99.90;;;;;;7565111;19;19922;-72
2023/07/26 10:33:13;;;;;;;3.95;2.65;;;16.00;99.90;;;;;;7562653;19;20538;-73
2023/07/26 10:35:46;;;;;;;3.63;2.78;;;15.90;99.90;;;;;;7561194;19;22708;-73
2023/07/26 10:38:19;;;;;;;5.50;3.00;;;15.70;99.90;;;;;;7557529;19;20011;-75
2023/07/26 10:40:52;;;;;;;3.67;3.17;;;15.60;99.90;;;;;;7558514;19;20022;-75
2023/07/26 10:43:24;;;;;;;6.60;4.40;;;15.20;99.90;;;;;;7547778;19;20862;-76
2023/07/26 10:46:06;;;;;;;9.55;5.38;;;14.90;99.90;;;;;;7560679;19;20552;-76
2023/07/26 10:48:40;;;;;;;11.45;7.00;;;14.50;99.90;;;;;;7560710;19;20014;-73
2023/07/26 10:51:23;;;;;;;11.15;6.80;;;14.20;99.90;;;;;;7566613;19;20586;-74
2023/07/26 10:53:57;;;;;;;11.88;6.70;;;14.10;99.90;;;;;;7571477;19;20010;-73
2023/07/26 10:56:31;;;;;;;8.25;4.70;;;14.00;99.90;;;;;;7566451;19;20018;-73
2023/07/26 10:59:04;;;;;;;8.02;5.03;;;14.00;99.90;;;;;;7580092;19;20082;-73
2023/07/26 11:01:44;;;;;;;6.30;4.35;;;14.40;99.90;;;;;;7585122;19;20018;-73
2023/07/26 11:04:20;;;;;;;7.60;4.97;;;14.40;99.90;;;;;;7565735;19;20469;-73
2023/07/26 11:07:04;;;;;;;6.80;4.90;;;14.60;99.90;;;;;;7525375;19;20014;-72
2023/07/26 11:09:36;;;;;;;5.55;4.43;;;15.30;99.90;;;;;;7573579;19;20100;-73
2023/07/26 11:12:13;;;;;;;9.93;5.18;;;15.60;99.90;;;;;;7569486;19;20011;-73
2023/07/26 11:14:49;;;;;;;6.57;4.95;;;15.80;99.90;;;;;;7553647;19;20014;-73
2023/07/26 11:17:44;;;;;;;7.65;4.88;;;15.90;99.90;;;;;;7573952;19;20018;-72
2023/07/26 11:20:17;;;;;;;7.05;4.95;;;16.00;99.90;;;;;;7586856;19;20128;-72
2023/07/26 11:22:49;;;;;;;4.57;3.83;;;16.40;99.90;;;;;;7566403;19;20029;-73
2023/07/26 11:25:22;;;;;;;11.93;4.53;;;16.80;99.90;;;;;;7573394;19;20017;-73
2023/07/26 11:27:54;;;;;;;5.75;4.15;;;16.60;99.90;;;;;;7570845;19;20018;-73
2023/07/26 11:30:26;;;;;;;6.25;4.65;;;16.30;99.90;;;;;;7582257;19;20019;-72
2023/07/26 11:32:59;;;;;;;5.57;3.70;;;16.20;99.90;;;;;;7561393;19;20079;-72
2023/07/26 11:35:40;;;;;;;6.78;4.00;;;16.20;99.90;;;;;;7561332;19;20526;-72
2023/07/26 11:38:14;;;;;;;7.93;3.95;;;15.90;99.90;;;;;;7552114;19;20958;-72
2023/07/26 11:40:46;;;;;;;4.43;3.45;;;15.90;99.90;;;;;;7575152;19;20020;-72
2023/07/26 11:43:20;;;;;;;5.00;3.90;;;16.20;99.90;;;;;;7577823;19;20010;-72
2023/07/26 11:45:54;;;;;;;5.55;2.97;;;16.50;99.90;;;;;;7549931;19;20018;-72
2023/07/26 11:48:33;;;;;;;6.30;3.10;;;16.40;99.90;;;;;;7574231;19;21154;-72
2023/07/26 11:51:06;;;;;;;4.22;2.90;;;16.00;99.90;;;;;;7546823;19;20021;-72
2023/07/26 11:53:41;;;;;;;3.97;2.60;;;15.70;99.90;;;;;;7572560;19;20017;-73
2023/07/26 11:56:28;;;;;;;4.88;3.20;;;15.50;99.90;;;;;;7574628;19;20833;-73
2023/07/26 11:59:01;;;;;;;8.77;3.90;;;15.20;99.90;;;;;;7572309;19;20018;-72
2023/07/26 12:01:34;;;;;;;6.53;4.18;;;14.80;99.90;;;;;;7563051;19;20022;-72
2023/07/26 12:04:15;;;;;;;6.10;3.80;;;14.20;99.90;;;;;;7582331;19;20022;-74
2023/07/26 12:06:48;;;;;;;6.43;3.10;;;13.60;99.90;;;;;;7572498;19;20022;-76
2023/07/26 12:09:20;;;;;;;3.50;3.20;;;12.80;99.90;;;;;;7569614;19;21599;-74
2023/07/26 12:11:53;;;;;;;7.22;4.25;;;12.50;99.90;;;;;;7563464;19;20387;-74
2023/07/26 12:14:28;;;;;;;;;;;12.50;99.90;;;;;;7548475;19;20014;-74
2023/07/26 12:17:01;;;;;;;5.65;3.75;;;12.30;99.90;;;;;;7574162;19;20914;-74
2023/07/26 12:19:33;;;;;;;3.92;3.10;;;12.20;99.90;;;;;;7556359;19;20024;-74
2023/07/26 12:22:06;;;;;;;4.53;3.42;;;12.00;99.90;;;;;;7573272;19;20028;-74
2023/07/26 12:24:54;;;;;;;5.93;2.90;;;12.00;99.90;;;;;;7579734;19;20019;-74
2023/07/26 12:27:37;;;;;;;7.68;3.80;;;12.10;99.90;;;;;;7567730;19;20015;-73
2023/07/26 12:30:19;;;;;;;7.35;4.25;;;12.00;99.90;;;;;;7559919;19;20855;-74
2023/07/26 12:33:12;;;;;;;7.05;4.22;;;12.00;99.90;;;;;;7548341;19;21100;-73
2023/07/26 12:35:46;;;;;;;5.95;4.80;;;12.10;99.90;;;;;;7566310;19;20069;-73
2023/07/26 12:38:23;;;;;;;6.70;5.00;;;12.20;99.90;;;;;;7566279;19;20011;-74
2023/07/26 12:40:56;;;;;;;7.05;6.22;;;12.30;99.90;;;;;;7566712;19;20027;-73
2023/07/26 12:43:30;;;;;;;8.55;5.47;;;12.50;99.90;;;;;;7563751;19;20025;-73
2023/07/26 12:46:02;;;;;;;;;;;12.70;99.90;;;;;;7569299;19;20021;-74
2023/07/26 12:48:35;;;;;;;8.68;4.97;;;12.80;99.90;;;;;;7553997;19;20480;-73
2023/07/26 12:51:09;;;;;;;6.85;4.80;;;13.00;99.90;;;;;;7560964;19;20026;-72
2023/07/26 12:53:42;;;;;;;6.95;4.85;;;13.10;99.90;;;;;;7555902;19;20018;-73
2023/07/26 12:56:14;;;;;;;7.97;4.38;;;13.10;99.90;;;;;;7560045;19;20018;-73
2023/07/26 12:58:46;;;;;;;5.55;4.57;;;13.20;99.90;;;;;;7576290;19;20022;-73
2023/07/26 13:01:37;;;;;;;6.50;4.32;;;13.30;99.90;;;;;;7553339;19;20014;-73
2023/07/26 13:04:11;;;;;;;5.57;4.03;;;13.20;99.90;;;;;;7566541;19;20951;-73
2023/07/26 13:06:43;;;;;;;6.95;4.63;;;13.20;99.90;;;;;;7582308;19;20889;-74
2023/07/26 13:09:15;;;;;;;8.00;4.65;;;13.40;99.90;;;;;;7576121;19;20022;-75
2023/07/26 13:11:48;;;;;;;5.32;4.60;;;13.60;99.90;;;;;;7582624;19;20045;-74
2023/07/26 13:14:21;;;;;;;6.82;5.13;;;13.70;99.90;;;;;;7563974;19;20594;-74